createdAt,value
2022-11-13T00:02:02.507Z,101700.16
2022-11-13T00:07:25.168Z,101701.78
2022-11-13T00:12:46.364Z,101693.16
2022-11-13T00:18:07.667Z,101687.25
2022-11-13T00:23:34.566Z,101688.19
2022-11-13T00:28:57.033Z,101687.41
2022-11-13T00:34:46.986Z,101673.25
2022-11-13T00:40:00.935Z,101678.53
2022-11-13T00:45:22.299Z,101672.34
2022-11-13T00:50:43.416Z,101670.91
2022-11-13T00:56:06.966Z,101680.38
2022-11-13T01:01:28.381Z,101673.34
2022-11-13T01:06:50.016Z,101668.03
2022-11-13T01:12:14.172Z,101668.25
2022-11-13T01:17:35.349Z,101665.44
2022-11-13T01:22:56.502Z,101670.78
2022-11-13T01:28:19.176Z,101660.63
2022-11-13T01:33:40.346Z,101658.88
2022-11-13T01:39:01.747Z,101656.16
2022-11-13T01:44:24.536Z,101653.34
2022-11-13T01:49:47.575Z,101646.13
2022-11-13T01:55:11.569Z,101644.59
2022-11-13T02:00:34.552Z,101637.00
2022-11-13T02:05:56.025Z,101640.41
2022-11-13T02:11:18.113Z,101636.28
2022-11-13T02:16:42.499Z,101625.59
2022-11-13T02:22:11.608Z,101621.44
2022-11-13T02:27:39.210Z,101615.50
2022-11-13T02:33:01.150Z,101628.69
2022-11-13T02:38:22.450Z,101626.06
2022-11-13T02:43:44.979Z,101618.81
2022-11-13T02:49:07.685Z,101618.94
2022-11-13T02:54:28.663Z,101608.28
2022-11-13T02:59:51.370Z,101605.13
2022-11-13T03:05:13.787Z,101603.50
2022-11-13T03:10:35.439Z,101602.47
2022-11-13T03:15:58.076Z,101598.75
2022-11-13T03:21:19.474Z,101594.31
2022-11-13T03:26:40.829Z,101583.41
2022-11-13T03:32:04.201Z,101592.34
2022-11-13T03:37:25.612Z,101580.25
2022-11-13T03:42:46.725Z,101580.03
2022-11-13T03:48:09.876Z,101572.78
2022-11-13T03:53:31.275Z,101584.38
2022-11-13T03:58:52.515Z,101574.69
2022-11-13T04:04:15.503Z,101568.25
2022-11-13T04:09:36.955Z,101558.38
2022-11-13T04:14:58.253Z,101549.97
2022-11-13T04:20:20.831Z,101548.69
2022-11-13T04:25:41.918Z,101542.06
2022-11-13T04:31:03.393Z,101535.38
2022-11-13T04:36:25.881Z,101534.44
2022-11-13T04:42:04.414Z,101536.22
2022-11-13T04:47:25.749Z,101535.41
2022-11-13T04:52:48.415Z,101528.00
2022-11-13T04:58:09.914Z,101527.56
2022-11-13T05:03:31.073Z,101513.28
2022-11-13T05:08:53.632Z,101506.03
2022-11-13T05:14:15.474Z,101507.25
2022-11-13T05:19:36.976Z,101503.25
2022-11-13T05:24:59.869Z,101491.31
2022-11-13T05:30:20.896Z,101490.91
2022-11-13T05:35:42.230Z,101488.53
2022-11-13T05:41:06.244Z,101488.47
2022-11-13T05:46:29.884Z,101490.19
2022-11-13T05:51:51.228Z,101485.69
2022-11-13T05:57:13.833Z,101491.53
2022-11-13T06:02:35.968Z,101483.88
2022-11-13T06:07:57.368Z,101474.78
2022-11-13T06:13:19.829Z,101476.06
2022-11-13T06:18:42.946Z,101462.81
2022-11-13T06:24:04.963Z,101467.88
2022-11-13T06:29:28.043Z,101459.47
2022-11-13T06:34:49.809Z,101449.91
2022-11-13T06:40:12.123Z,101450.75
2022-11-13T06:45:34.884Z,101456.41
2022-11-13T06:50:56.257Z,101455.03
2022-11-13T06:56:18.931Z,101449.41
2022-11-13T07:01:41.955Z,101449.31
2022-11-13T07:07:04.131Z,101450.81
2022-11-13T07:12:25.716Z,101450.69
2022-11-13T07:17:48.663Z,101442.72
2022-11-13T07:23:10.733Z,101445.59
2022-11-13T07:28:32.068Z,101445.38
2022-11-13T07:33:54.668Z,101443.59
2022-11-13T07:39:15.779Z,101436.16
2022-11-13T07:50:19.707Z,101420.06
2022-11-13T07:55:40.921Z,101423.22
2022-11-13T08:01:04.114Z,101419.00
2022-11-13T08:06:28.002Z,101418.38
2022-11-13T08:11:49.207Z,101419.72
2022-11-13T08:17:10.516Z,101423.44
2022-11-13T08:22:33.443Z,101427.41
2022-11-13T08:27:55.765Z,101416.28
2022-11-13T08:33:17.442Z,101417.50
2022-11-13T08:38:39.975Z,101407.34
2022-11-13T08:44:01.321Z,101400.75
2022-11-13T08:49:22.827Z,101399.63
2022-11-13T08:54:45.376Z,101392.88
2022-11-13T09:00:07.655Z,101391.81
2022-11-13T09:05:29.251Z,101394.66
2022-11-13T09:10:52.007Z,101384.94
2022-11-13T09:16:13.076Z,101381.28
2022-11-13T09:21:34.255Z,101386.84
2022-11-13T09:26:56.823Z,101362.66
2022-11-13T09:32:18.432Z,101363.06
2022-11-13T09:37:40.215Z,101352.00
2022-11-13T09:43:05.543Z,101344.09
2022-11-13T09:48:32.880Z,101340.00
2022-11-13T09:53:54.616Z,101337.31
2022-11-13T09:59:26.443Z,101335.84
2022-11-13T10:04:59.284Z,101330.66
2022-11-13T10:10:37.732Z,101319.25
2022-11-13T10:16:10.399Z,101316.53
2022-11-13T10:21:36.260Z,101306.81
2022-11-13T10:27:00.419Z,101311.56
2022-11-13T10:32:26.844Z,101301.72
2022-11-13T10:37:57.686Z,101294.56
2022-11-13T10:43:22.409Z,101281.28
2022-11-13T10:48:45.379Z,101286.47
2022-11-13T10:54:20.943Z,101266.28
2022-11-13T10:59:44.510Z,101264.03
2022-11-13T11:05:17.795Z,101256.94
2022-11-13T11:11:00.996Z,101244.72
2022-11-13T11:16:24.883Z,101237.31
2022-11-13T11:21:49.677Z,101223.25
2022-11-13T11:27:16.047Z,101207.63
2022-11-13T11:32:43.530Z,101194.75
2022-11-13T11:38:11.632Z,101189.47
2022-11-13T11:43:43.925Z,101183.31
2022-11-13T11:49:06.300Z,101178.34
2022-11-13T11:54:41.224Z,101169.84
2022-11-13T12:00:07.443Z,101157.94
2022-11-13T12:05:34.082Z,101154.41
2022-11-13T12:11:04.060Z,101158.91
2022-11-13T12:16:33.665Z,101160.09
2022-11-13T12:22:06.061Z,101160.38
2022-11-13T12:27:35.689Z,101138.78
2022-11-13T12:33:21.577Z,101135.19
2022-11-13T12:38:48.567Z,101128.31
2022-11-13T12:44:24.198Z,101120.69
2022-11-13T12:49:45.706Z,101118.31
2022-11-13T12:55:09.502Z,101104.72
2022-11-13T13:00:34.750Z,101110.78
2022-11-13T13:06:12.320Z,101096.97
2022-11-13T13:11:44.904Z,101089.81
2022-11-13T13:17:19.154Z,101082.03
2022-11-13T13:22:41.283Z,101065.19
2022-11-13T13:28:05.745Z,101055.38
2022-11-13T13:33:36.739Z,101042.91
2022-11-13T13:39:07.937Z,101043.97
2022-11-13T13:44:45.219Z,101028.69
2022-11-13T13:50:15.640Z,101028.38
2022-11-13T13:55:39.994Z,101017.97
2022-11-13T14:01:18.263Z,101011.84
2022-11-13T14:06:50.975Z,101009.53
2022-11-13T14:12:20.064Z,101007.00
2022-11-13T14:17:41.660Z,101002.78
2022-11-13T14:23:04.992Z,101003.31
2022-11-13T14:28:28.892Z,100999.56
2022-11-13T14:33:51.241Z,101001.84
2022-11-13T14:39:23.116Z,101000.38
2022-11-13T14:44:44.412Z,100994.50
2022-11-13T14:50:20.227Z,100998.56
2022-11-13T14:55:53.870Z,100995.66
2022-11-13T15:01:17.300Z,100987.91
2022-11-13T15:06:41.707Z,100990.31
2022-11-13T15:12:04.612Z,100990.63
2022-11-13T15:17:25.868Z,100991.03
2022-11-13T15:22:47.235Z,100989.63
2022-11-13T15:28:09.832Z,100992.44
2022-11-13T15:33:31.512Z,100998.06
2022-11-13T15:38:52.977Z,100995.91
2022-11-13T15:44:17.070Z,100993.22
2022-11-13T15:49:40.744Z,100991.16
2022-11-13T15:55:19.323Z,100993.47
2022-11-13T16:00:42.943Z,100995.53
2022-11-13T16:06:04.337Z,100986.47
2022-11-13T16:11:25.607Z,100984.06
2022-11-13T16:16:50.529Z,100980.78
2022-11-13T16:22:19.995Z,100982.06
2022-11-13T16:27:41.471Z,100970.28
2022-11-13T16:33:05.857Z,100982.88
2022-11-13T16:38:27.292Z,100972.78
2022-11-13T16:43:48.241Z,100964.44
2022-11-13T16:49:18.821Z,100963.38
2022-11-13T16:54:40.475Z,100978.69
2022-11-13T17:00:01.709Z,100970.59
2022-11-13T17:05:25.142Z,100976.59
2022-11-13T17:10:46.301Z,100966.19
2022-11-13T17:16:07.847Z,100962.91
2022-11-13T17:21:30.971Z,100965.28
2022-11-13T17:26:52.494Z,100956.19
2022-11-13T17:32:13.679Z,100962.00
2022-11-13T17:37:36.455Z,100948.16
2022-11-13T17:42:57.742Z,100957.56
2022-11-13T17:48:20.067Z,100959.97
2022-11-13T17:53:43.715Z,100955.16
2022-11-13T17:59:05.248Z,100953.97
2022-11-13T18:04:26.816Z,100950.59
2022-11-13T18:09:49.380Z,100965.88
2022-11-13T18:15:10.870Z,100969.47
2022-11-13T18:20:32.849Z,100966.56
2022-11-13T18:25:55.739Z,100960.78
2022-11-13T18:31:20.052Z,100949.66
2022-11-13T18:36:41.204Z,100938.94
2022-11-13T18:42:04.875Z,100933.72
2022-11-13T18:47:26.431Z,100940.06
2022-11-13T18:52:47.769Z,100945.72
2022-11-13T18:58:12.701Z,100942.38
2022-11-13T19:03:34.832Z,100960.59
2022-11-13T19:08:57.779Z,100953.50
2022-11-13T19:14:20.398Z,100948.81
2022-11-13T19:19:42.270Z,100953.06
2022-11-13T19:25:03.827Z,100947.25
2022-11-13T19:30:27.245Z,100937.22
2022-11-13T19:35:48.780Z,100930.94
2022-11-13T19:41:11.024Z,100924.66
2022-11-13T19:46:34.145Z,100918.78
2022-11-13T19:51:55.727Z,100910.22
2022-11-13T19:57:17.174Z,100912.22
2022-11-13T20:02:39.743Z,100906.72
2022-11-13T20:08:01.037Z,100907.03
2022-11-13T20:13:22.300Z,100890.44
2022-11-13T20:18:45.604Z,100886.72
2022-11-13T20:24:07.629Z,100878.13
2022-11-13T20:29:28.912Z,100871.56
2022-11-13T20:34:51.559Z,100880.34
2022-11-13T20:40:13.021Z,100866.94
2022-11-13T20:45:34.528Z,100869.97
2022-11-13T20:50:57.285Z,100858.25
2022-11-13T20:56:20.591Z,100850.91
2022-11-13T21:01:42.069Z,100841.59
2022-11-13T21:07:05.147Z,100846.69
2022-11-13T21:12:26.810Z,100848.06
2022-11-13T21:17:48.031Z,100848.75
2022-11-13T21:23:10.760Z,100833.94
2022-11-13T21:28:33.950Z,100829.06
2022-11-13T21:33:55.841Z,100818.31
2022-11-13T21:39:18.652Z,100817.56
2022-11-13T21:44:39.797Z,100812.03
2022-11-13T21:50:00.924Z,100808.72
2022-11-13T21:55:23.751Z,100802.91
2022-11-13T22:00:46.957Z,100803.75
2022-11-13T22:06:16.665Z,100794.84
2022-11-13T22:11:39.510Z,100794.47
2022-11-13T22:17:00.756Z,100785.78
2022-11-13T22:22:22.009Z,100777.94
2022-11-13T22:34:18.182Z,100759.91
2022-11-13T22:39:40.982Z,100762.16
2022-11-13T22:45:07.261Z,100763.22
2022-11-13T22:50:36.673Z,100740.09
2022-11-13T22:56:03.762Z,100742.69
2022-11-13T23:01:26.657Z,100746.28
2022-11-13T23:06:47.685Z,100720.78
2022-11-13T23:12:10.477Z,100719.38
2022-11-13T23:17:31.716Z,100713.19
2022-11-13T23:22:52.907Z,100705.22
2022-11-13T23:28:15.597Z,100689.94
2022-11-13T23:33:38.077Z,100694.03
2022-11-13T23:38:59.355Z,100684.84
2022-11-13T23:44:21.969Z,100683.81
2022-11-13T23:49:43.826Z,100675.28
2022-11-13T23:55:05.863Z,100683.28
